MAPA DE AEROPUERTO

INFORMACIÓN METAR y TAF


Deprecated: The each() function is deprecated. This message will be suppressed on further calls in /home/customer/www/clickair-va.com/public_html/VAM/vam/helpers/get_metar.php on line 20
METAR FOR LEIB
ADDS - METARS form results

(0324 UTC 28 January 2023)
Data provider http://aviationweather.gov/metar/data/
 
METAR text: LEIB 280300Z AUTO VRB02KT CAVOK 06/03 Q1016
Conditions at: LEIB (IBIZA/ES CODOLA , ES) observed 0300 UTC 28 January 2023
Temperature: 6.0°C (43°F)
Dewpoint: 3.0°C (37°F) [RH = 81%]
Pressure (altimeter): 30.00 inches Hg (1016.0 mb)
Winds: variable direction winds at 2 MPH (2 knots; 1.0 m/s)
Visibility: 6 or more miles (10+ km)
Ceiling: ceiling and visibility are OK
Clouds: unknown
Weather: no significant weather observed at this time

METAR text: LEIB 280230Z AUTO 02004KT 340V060 CAVOK 05/02 Q1016
Conditions at: LEIB (IBIZA/ES CODOLA , ES) observed 0230 UTC 28 January 2023
Temperature: 5.0°C (41°F)
Dewpoint: 2.0°C (36°F) [RH = 81%]
Pressure (altimeter): 30.00 inches Hg (1016.0 mb)
Winds: from the NNE (20 degrees) at 5 MPH (4 knots; 2.1 m/s)
Visibility: 6 or more miles (10+ km)
Ceiling: ceiling and visibility are OK
Clouds: unknown
Weather: no significant weather observed at this time

Forecast for: LEIB (IBIZA/ES CODOLA , ES)
Text: TAF LEIB 280200Z 2803/2903 01007KT 9999 FEW015 SCT025 TX12/2813Z TN03/2806Z
Forecast period: 0300 UTC 28 January 2023 to 0300 UTC 29 January 2023
Forecast type: FROM: standard forecast or significant change
Winds: from the N (10 degrees) at 8 MPH (7 knots; 3.6 m/s)
Visibility: 6 or more miles (10+ km)
Ceiling: at least 12,000 feet AGL
Clouds: few clouds at 1500 feet AGL
scattered clouds at 2500 feet AGL
Weather: no significant weather forecast for this period
Text: PROB40
Forecast period: 0300 UTC 28 January 2023 to 0300 UTC 29 January 2023
Forecast type: TEMPORARY: The following changes expected for less than half the time period
Visibility: missing
Ceiling: at least 12,000 feet AGL
Clouds: few clouds at 2500 feet AGL
Weather: SHRA  (rain showers)